Time;durP1;ratioP1;P1;durP2;ratioP2;P2;SDS_P1;SDS_P2;PMS_P1;PMS_P2;Temp;Humidity;BMP_temperature;BMP_pressure;BME280_temperature;BME280_humidity;BME280_pressure;Samples;Min_cycle;Max_cycle;Signal;HPM_P1;HPM_P2
2022/10/15 00:00:38;;;;;;;10.50;8.57;;;;;;;14.72;99.99;100680.06;4930503;29;20213;-70
2022/10/15 00:03:04;;;;;;;12.87;10.60;;;;;;;14.72;100.00;100674.91;4930182;29;20252;-69
2022/10/15 00:05:29;;;;;;;10.53;9.07;;;;;;;14.72;100.00;100685.22;4929667;29;20560;-70
2022/10/15 00:07:55;;;;;;;10.73;9.50;;;;;;;14.73;100.00;100676.66;4927377;29;20237;-70
2022/10/15 00:10:21;;;;;;;10.87;9.70;;;;;;;14.74;99.81;100675.78;4932568;29;20221;-71
2022/10/15 00:12:47;;;;;;;11.77;9.43;;;;;;;14.76;100.00;100674.06;4928163;29;20307;-69
2022/10/15 00:15:13;;;;;;;10.10;8.90;;;;;;;14.76;100.00;100672.34;4932053;29;20268;-71
2022/10/15 00:17:38;;;;;;;10.80;9.43;;;;;;;14.76;100.00;100674.06;4928095;29;20201;-70
2022/10/15 00:20:07;;;;;;;11.83;9.73;;;;;;;14.76;100.00;100666.31;4933179;29;20233;-69
2022/10/15 00:22:32;;;;;;;12.30;9.70;;;;;;;14.76;100.00;100668.91;4928237;29;20714;-70
2022/10/15 00:24:58;;;;;;;10.63;9.53;;;;;;;14.74;100.00;100668.06;4929434;29;20222;-71
2022/10/15 00:27:24;;;;;;;12.30;10.37;;;;;;;14.71;100.00;100668.03;4933830;29;20212;-70
2022/10/15 00:29:49;;;;;;;11.63;10.43;;;;;;;14.70;100.00;100668.91;4931112;28;20699;-69
2022/10/15 00:32:16;;;;;;;14.90;10.67;;;;;;;14.69;100.00;100668.03;4919276;29;20277;-69
2022/10/15 00:34:41;;;;;;;10.90;9.80;;;;;;;14.68;100.00;100671.47;4941850;28;20183;-69
2022/10/15 00:37:07;;;;;;;11.73;9.80;;;;;;;14.68;100.00;100663.75;4933018;29;21439;-70
2022/10/15 00:39:33;;;;;;;13.40;9.80;;;;;;;14.70;100.00;100661.19;4930126;29;21189;-69
2022/10/15 00:41:59;;;;;;;11.93;9.87;;;;;;;14.70;100.00;100663.75;4933745;29;20190;-69
2022/10/15 00:44:24;;;;;;;11.30;9.67;;;;;;;14.70;100.00;100669.78;4932234;29;20213;-69
2022/10/15 00:47:00;;;;;;;13.77;10.93;;;;;;;14.68;100.00;100660.34;4932667;29;20198;-70
2022/10/15 00:49:32;;;;;;;11.27;9.90;;;;;;;14.68;100.00;100665.50;4946140;28;20237;-70
2022/10/15 00:52:05;;;;;;;14.40;10.17;;;;;;;14.68;100.00;100661.16;4928122;29;20596;-70
2022/10/15 00:54:36;;;;;;;12.33;9.97;;;;;;;14.69;100.00;100670.63;4937767;29;20194;-70
2022/10/15 00:57:03;;;;;;;12.97;10.17;;;;;;;14.69;100.00;100668.03;4932456;29;20664;-70
2022/10/15 00:59:30;;;;;;;12.37;10.43;;;;;;;14.68;100.00;100660.34;4936786;28;20709;-71
2022/10/15 01:01:59;;;;;;;15.20;11.10;;;;;;;14.68;100.00;100668.06;4932193;28;20986;-70
2022/10/15 01:04:25;;;;;;;12.50;10.63;;;;;;;14.68;100.00;100662.91;4925548;29;20224;-70
2022/10/15 01:06:50;;;;;;;12.23;11.03;;;;;;;14.67;100.00;100658.59;4932605;29;20198;-71
2022/10/15 01:09:16;;;;;;;12.47;11.30;;;;;;;14.65;100.00;100653.44;4947314;28;20213;-69
2022/10/15 01:11:46;;;;;;;15.17;12.03;;;;;;;14.65;100.00;100650.00;4948555;28;20186;-70
2022/10/15 01:14:25;;;;;;;14.70;11.60;;;;;;;14.64;100.00;100653.47;4932972;29;20186;-70
2022/10/15 01:17:15;;;;;;;14.27;12.27;;;;;;;14.64;100.00;100653.47;4929070;29;20231;-69
2022/10/15 01:20:19;;;;;;;15.43;12.50;;;;;;;14.64;100.00;100650.88;4972649;23;20735;-78
2022/10/15 01:22:59;;;;;;;15.73;11.93;;;;;;;14.63;100.00;100642.28;4948306;29;20260;-77
2022/10/15 01:26:00;;;;;;;14.60;12.27;;;;;;;14.63;100.00;100643.97;4950004;29;20212;-77
2022/10/15 01:29:12;;;;;;;14.20;12.70;;;;;;;14.62;100.00;100650.88;4919399;28;20197;-77
2022/10/15 01:32:10;;;;;;;16.10;13.23;;;;;;;14.62;100.00;100650.88;4938068;29;20223;-77
2022/10/15 01:34:47;;;;;;;17.50;12.67;;;;;;;14.62;100.00;100647.44;4939917;29;20248;-77
2022/10/15 01:37:34;;;;;;;15.70;13.57;;;;;;;14.61;100.00;100645.72;4945894;28;20195;-78
2022/10/15 01:40:38;;;;;;;20.37;13.90;;;;;;;14.60;100.00;100642.25;4934331;28;20694;-77
2022/10/15 01:43:09;;;;;;;17.27;14.80;;;;;;;14.60;100.00;100654.31;4939665;29;20563;-77
2022/10/15 01:45:59;;;;;;;18.50;14.43;;;;;;;14.60;100.00;100651.72;4957667;28;20212;-78
2022/10/15 01:48:41;;;;;;;18.27;14.97;;;;;;;14.58;100.00;100645.69;4950757;28;20199;-78
2022/10/15 01:51:10;;;;;;;16.73;14.73;;;;;;;14.58;100.00;100645.69;4947214;29;20216;-77
2022/10/15 01:53:37;;;;;;;20.80;16.83;;;;;;;14.55;100.00;100641.41;4945570;28;20213;-77
2022/10/15 01:56:07;;;;;;;20.83;15.93;;;;;;;14.54;100.00;100637.13;4934126;29;20220;-77
2022/10/15 01:58:37;;;;;;;23.60;17.50;;;;;;;14.54;100.00;100636.28;4949899;28;20277;-77
2022/10/15 02:01:03;;;;;;;20.63;17.53;;;;;;;14.53;100.00;100631.97;4950124;29;20211;-77
2022/10/15 02:03:28;;;;;;;24.17;19.70;;;;;;;14.53;100.00;100640.56;4947681;28;20679;-76
2022/10/15 02:06:09;;;;;;;24.40;19.13;;;;;;;14.52;100.00;100638.84;4950278;28;20220;-76
2022/10/15 02:08:50;;;;;;;28.33;20.80;;;;;;;14.53;100.00;100645.72;4947808;28;20189;-77
2022/10/15 02:11:18;;;;;;;29.47;21.97;;;;;;;14.52;100.00;100644.00;4945042;28;20204;-76
2022/10/15 02:13:43;;;;;;;28.07;21.37;;;;;;;14.51;100.00;100639.69;4947155;29;20185;-76
2022/10/15 02:16:28;;;;;;;25.90;21.87;;;;;;;14.52;100.00;100641.44;4947004;28;20217;-76
2022/10/15 02:19:12;;;;;;;29.07;22.03;;;;;;;14.50;100.00;100635.41;4950048;28;20205;-76
2022/10/15 02:21:47;;;;;;;29.90;22.90;;;;;;;14.50;100.00;100643.13;4946552;28;20209;-76
2022/10/15 02:24:20;;;;;;;29.70;22.33;;;;;;;14.50;100.00;100632.81;4947605;28;20220;-76
2022/10/15 02:26:50;;;;;;;28.57;23.03;;;;;;;14.51;100.00;100628.53;4944447;29;20257;-76
2022/10/15 02:29:20;;;;;;;28.70;23.57;;;;;;;14.52;100.00;100625.09;4945736;28;20199;-76
2022/10/15 02:31:47;;;;;;;28.70;22.73;;;;;;;14.52;100.00;100632.84;4948862;28;20758;-76
2022/10/15 02:34:18;;;;;;;29.47;22.80;;;;;;;14.50;100.00;100631.97;4948611;28;20276;-76
2022/10/15 02:36:45;;;;;;;29.47;23.77;;;;;;;14.49;100.00;100631.13;4947057;28;20660;-77
2022/10/15 02:39:13;;;;;;;28.13;22.07;;;;;;;14.45;100.00;100625.97;4949721;28;20272;-77
2022/10/15 02:41:39;;;;;;;25.90;21.70;;;;;;;14.40;100.00;100622.50;4946419;29;20213;-77
2022/10/15 02:44:07;;;;;;;27.00;21.97;;;;;;;14.40;100.00;100622.50;4930337;29;20213;-77
2022/10/15 02:46:33;;;;;;;27.63;22.03;;;;;;;14.41;100.00;100614.78;4945475;29;20191;-77
2022/10/15 02:48:59;;;;;;;26.60;23.20;;;;;;;14.35;100.00;100619.06;4949204;28;21456;-77
2022/10/15 02:51:24;;;;;;;27.33;22.97;;;;;;;14.28;100.00;100618.22;4943086;28;20224;-77
2022/10/15 02:53:51;;;;;;;28.97;23.13;;;;;;;14.23;100.00;100626.81;4948292;28;20186;-76
2022/10/15 02:56:17;;;;;;;31.23;23.90;;;;;;;14.15;99.26;100626.78;4949954;28;20550;-76
2022/10/15 02:58:43;;;;;;;28.50;22.60;;;;;;;14.08;99.13;100625.03;4941326;28;20190;-76
2022/10/15 03:01:08;;;;;;;28.77;23.47;;;;;;;14.01;98.17;100631.03;4949443;28;20209;-76
2022/10/15 03:03:34;;;;;;;27.47;22.00;;;;;;;13.99;97.71;100627.59;4943114;28;20595;-76
2022/10/15 03:05:59;;;;;;;27.20;22.77;;;;;;;13.92;98.13;100630.16;4949137;28;20773;-75
2022/10/15 03:08:25;;;;;;;25.83;22.23;;;;;;;13.87;98.10;100625.00;4933730;28;20204;-76
2022/10/15 03:10:51;;;;;;;27.60;21.73;;;;;;;13.86;98.11;100635.28;4944305;28;20212;-76
2022/10/15 03:13:16;;;;;;;28.77;22.77;;;;;;;13.84;97.94;100631.84;4945699;28;20428;-76
2022/10/15 03:15:47;;;;;;;30.20;24.13;;;;;;;13.84;98.65;100631.84;4942697;28;20182;-76
2022/10/15 03:18:13;;;;;;;33.13;24.67;;;;;;;13.82;98.43;100636.13;4949156;28;20276;-75
2022/10/15 03:20:39;;;;;;;31.33;24.00;;;;;;;13.82;99.14;100646.44;4926071;28;20293;-76
2022/10/15 03:23:05;;;;;;;33.87;25.00;;;;;;;13.78;99.05;100643.00;4949386;29;20284;-77
2022/10/15 03:25:31;;;;;;;34.93;25.40;;;;;;;13.76;99.62;100651.56;4944381;28;20209;-77
2022/10/15 03:28:00;;;;;;;32.00;24.43;;;;;;;13.73;99.51;100643.81;4931900;29;20583;-76
2022/10/15 03:30:34;;;;;;;32.60;25.50;;;;;;;13.68;100.00;100640.38;4944257;28;20690;-77
2022/10/15 03:32:59;;;;;;;32.73;23.30;;;;;;;13.60;99.69;100647.19;4929977;28;20209;-76
2022/10/15 03:35:25;;;;;;;35.83;25.30;;;;;;;13.56;99.83;100648.03;4928347;28;20198;-76
2022/10/15 03:37:51;;;;;;;34.93;25.43;;;;;;;13.52;99.92;100651.44;4948057;28;20193;-76
2022/10/15 03:40:17;;;;;;;34.60;24.90;;;;;;;13.50;99.25;100650.59;4949688;28;20205;-76
2022/10/15 03:42:43;;;;;;;33.83;23.97;;;;;;;13.45;99.37;100647.16;4945389;28;20190;-76
2022/10/15 03:45:10;;;;;;;36.53;25.77;;;;;;;13.39;99.80;100647.97;4952917;28;20213;-76
2022/10/15 03:47:36;;;;;;;34.23;24.53;;;;;;;13.37;99.61;100651.38;4933551;28;20194;-76
2022/10/15 03:50:01;;;;;;;38.37;25.87;;;;;;;13.33;99.81;100652.22;4952796;28;20213;-76
2022/10/15 03:52:28;;;;;;;32.10;24.27;;;;;;;13.28;100.00;100651.34;4947859;28;20192;-76
2022/10/15 03:54:53;;;;;;;35.53;25.30;;;;;;;13.21;99.94;100649.59;4935417;28;20189;-76
2022/10/15 03:57:19;;;;;;;32.43;23.73;;;;;;;13.17;99.69;100648.69;4952490;28;20866;-76
2022/10/15 03:59:50;;;;;;;33.80;24.13;;;;;;;13.14;99.33;100648.69;4950314;28;20249;-76
2022/10/15 04:02:17;;;;;;;33.70;22.13;;;;;;;13.12;99.23;100642.66;4952264;28;20181;-76
2022/10/15 04:04:42;;;;;;;31.27;22.53;;;;;;;13.12;99.25;100649.53;4934269;28;20754;-77
2022/10/15 04:07:08;;;;;;;32.60;23.77;;;;;;;13.07;99.03;100646.94;4952551;28;20189;-76
2022/10/15 04:09:34;;;;;;;30.50;22.10;;;;;;;13.03;98.86;100646.91;4951971;28;20185;-76
2022/10/15 04:12:17;;;;;;;30.30;21.07;;;;;;;12.99;99.00;100655.44;4952949;29;20196;-76
2022/10/15 04:14:44;;;;;;;29.17;21.50;;;;;;;12.96;99.43;100648.56;4932120;28;20202;-77
2022/10/15 04:17:10;;;;;;;29.53;21.70;;;;;;;12.91;99.53;100655.38;4953309;28;20201;-76
2022/10/15 04:19:36;;;;;;;29.73;22.67;;;;;;;12.88;99.78;100651.06;4938608;28;20205;-77
2022/10/15 04:22:03;;;;;;;30.83;22.60;;;;;;;12.82;99.50;100660.44;4947820;28;20252;-76
2022/10/15 04:24:34;;;;;;;29.20;20.13;;;;;;;12.75;99.34;100662.09;4952717;28;20304;-77
2022/10/15 04:26:59;;;;;;;29.07;21.03;;;;;;;12.69;98.94;100667.22;4950837;28;20280;-76
2022/10/15 04:29:25;;;;;;;30.73;21.60;;;;;;;12.68;98.35;100662.91;4951868;28;20181;-76
2022/10/15 04:31:52;;;;;;;29.33;21.67;;;;;;;12.74;98.57;100659.53;4952120;28;20193;-77
2022/10/15 04:34:18;;;;;;;29.97;20.30;;;;;;;12.64;98.66;100665.44;4953090;28;20188;-76
2022/10/15 04:36:43;;;;;;;29.33;21.47;;;;;;;12.67;98.55;100662.91;4936317;29;20189;-76
2022/10/15 04:39:16;;;;;;;30.80;20.90;;;;;;;12.56;98.16;100664.50;4951470;28;20193;-76
2022/10/15 04:41:43;;;;;;;31.30;21.53;;;;;;;12.57;98.77;100669.66;4950927;28;20216;-77
2022/10/15 04:44:14;;;;;;;29.10;20.80;;;;;;;12.60;98.95;100663.69;4935475;29;20568;-75
2022/10/15 04:46:46;;;;;;;28.47;20.57;;;;;;;12.63;99.22;100672.28;4951790;28;20186;-77
2022/10/15 04:49:38;;;;;;;29.70;21.23;;;;;;;12.63;99.27;100667.13;4955777;28;20197;-76
2022/10/15 04:52:14;;;;;;;30.63;21.40;;;;;;;12.62;99.91;100675.69;4951602;28;20192;-77
2022/10/15 04:54:50;;;;;;;31.30;22.87;;;;;;;12.63;99.90;100677.41;4950413;28;20193;-77
2022/10/15 04:57:19;;;;;;;36.97;23.57;;;;;;;12.65;100.00;100678.31;4935284;29;20192;-77
2022/10/15 04:59:45;;;;;;;32.93;23.07;;;;;;;12.66;99.86;100671.44;4952425;28;20781;-76
2022/10/15 05:02:33;;;;;;;33.33;23.17;;;;;;;12.71;100.00;100669.75;4935554;29;20659;-76
2022/10/15 05:05:21;;;;;;;34.23;23.33;;;;;;;12.71;100.00;100673.22;4948835;28;20260;-75
2022/10/15 05:07:59;;;;;;;36.17;22.67;;;;;;;12.72;100.00;100676.66;4948650;29;20221;-76
2022/10/15 05:10:24;;;;;;;39.10;25.63;;;;;;;12.72;100.00;100677.50;4950525;28;20212;-76
2022/10/15 05:12:50;;;;;;;39.90;25.17;;;;;;;12.70;100.00;100678.31;4935318;29;20197;-76
2022/10/15 05:15:24;;;;;;;37.13;25.40;;;;;;;12.69;100.00;100686.88;4950199;28;20193;-76
2022/10/15 05:17:50;;;;;;;41.97;26.47;;;;;;;12.67;100.00;100686.88;4934540;29;20201;-76
2022/10/15 05:20:15;;;;;;;41.17;25.17;;;;;;;12.67;100.00;100692.00;4964531;23;20256;-74
2022/10/15 05:22:41;;;;;;;37.40;24.23;;;;;;;12.69;100.00;100692.91;4951358;28;20248;-74
2022/10/15 05:25:07;;;;;;;36.27;23.87;;;;;;;12.67;100.00;100691.16;4952648;28;20237;-74
2022/10/15 05:27:35;;;;;;;37.60;24.47;;;;;;;12.64;100.00;100694.56;4951398;28;20193;-74
2022/10/15 05:30:03;;;;;;;35.40;24.27;;;;;;;12.67;100.00;100694.56;4951185;28;20224;-74
2022/10/15 05:32:34;;;;;;;38.50;23.70;;;;;;;12.69;100.00;100692.91;4932979;29;20362;-74
2022/10/15 05:35:01;;;;;;;34.77;24.50;;;;;;;12.69;100.00;100700.59;4944981;28;20213;-74
2022/10/15 05:37:40;;;;;;;36.20;24.03;;;;;;;12.69;100.00;100702.31;4933201;29;20189;-74
2022/10/15 05:40:06;;;;;;;38.93;25.20;;;;;;;12.68;100.00;100710.88;4949354;28;20209;-74
2022/10/15 05:42:32;;;;;;;38.27;25.53;;;;;;;12.65;100.00;100709.13;4947984;28;20279;-74
2022/10/15 05:44:57;;;;;;;39.17;26.07;;;;;;;12.69;100.00;100704.88;4950848;28;20221;-74
2022/10/15 05:47:23;;;;;;;39.97;26.73;;;;;;;12.70;100.00;100710.03;4949390;28;20229;-74
2022/10/15 05:49:52;;;;;;;39.67;25.87;;;;;;;12.71;100.00;100709.19;4953664;28;20213;-74
2022/10/15 05:52:29;;;;;;;39.77;26.33;;;;;;;12.73;100.00;100715.16;4946997;29;20712;-74
2022/10/15 05:55:08;;;;;;;41.40;27.53;;;;;;;12.78;100.00;100712.66;4951190;28;20178;-74
2022/10/15 05:57:33;;;;;;;44.73;27.00;;;;;;;12.79;100.00;100710.09;4954913;28;20227;-75
2022/10/15 06:00:06;;;;;;;40.50;25.73;;;;;;;12.80;100.00;100716.97;4950646;28;20213;-74
2022/10/15 06:02:37;;;;;;;43.80;27.07;;;;;;;12.82;100.00;100719.56;4952362;28;20802;-74
2022/10/15 06:05:03;;;;;;;39.93;26.50;;;;;;;12.84;100.00;100720.41;4950259;28;20209;-74
2022/10/15 06:07:31;;;;;;;40.47;26.57;;;;;;;12.86;100.00;100714.44;4947772;28;20336;-75
2022/10/15 06:09:57;;;;;;;40.07;25.70;;;;;;;12.89;100.00;100718.72;4951567;28;20209;-75
2022/10/15 06:12:22;;;;;;;43.30;26.87;;;;;;;12.88;100.00;100717.03;4952078;28;20527;-74
2022/10/15 06:14:48;;;;;;;39.37;25.93;;;;;;;12.86;100.00;100722.13;4949865;28;20181;-74
2022/10/15 06:17:13;;;;;;;37.23;24.83;;;;;;;12.88;100.00;100723.03;4952179;28;20185;-74
2022/10/15 06:19:40;;;;;;;38.73;24.93;;;;;;;12.90;100.00;100723.06;4950388;29;20777;-75
2022/10/15 06:22:06;;;;;;;40.20;26.83;;;;;;;12.91;100.00;100723.03;4948237;28;20288;-74
2022/10/15 06:24:31;;;;;;;41.20;25.87;;;;;;;12.95;100.00;100729.09;4951919;28;20243;-74
2022/10/15 06:26:58;;;;;;;37.97;25.30;;;;;;;12.96;100.00;100720.53;4951159;28;20255;-74
2022/10/15 06:29:24;;;;;;;40.97;25.63;;;;;;;12.98;100.00;100718.84;4951852;28;20212;-74
2022/10/15 06:31:52;;;;;;;39.93;25.27;;;;;;;12.98;100.00;100734.25;4951132;28;20606;-74
2022/10/15 06:34:17;;;;;;;43.53;26.43;;;;;;;12.99;100.00;100728.28;4948654;28;20181;-74
2022/10/15 06:36:42;;;;;;;38.73;24.30;;;;;;;12.99;100.00;100727.41;4950537;28;20592;-74
2022/10/15 06:39:08;;;;;;;37.07;23.30;;;;;;;12.95;100.00;100735.06;4949988;28;20925;-74
2022/10/15 06:41:33;;;;;;;37.00;22.00;;;;;;;12.99;99.42;100741.16;4950360;28;20223;-75
2022/10/15 06:43:59;;;;;;;36.77;22.43;;;;;;;12.99;99.06;100742.84;4949822;28;20263;-74
2022/10/15 06:46:24;;;;;;;38.37;22.70;;;;;;;13.05;98.45;100736.03;4931179;28;20201;-74
2022/10/15 06:48:50;;;;;;;35.37;22.43;;;;;;;13.09;98.56;100753.22;4949356;29;20539;-75
2022/10/15 06:51:16;;;;;;;37.40;22.10;;;;;;;13.11;97.74;100746.38;4951316;28;20213;-75
2022/10/15 06:53:48;;;;;;;36.43;23.03;;;;;;;13.13;97.78;100748.94;4946296;29;20231;-74
2022/10/15 06:56:13;;;;;;;38.87;23.63;;;;;;;13.13;97.67;100746.38;4948922;29;21256;-74
2022/10/15 06:58:42;;;;;;;34.90;22.40;;;;;;;13.18;97.35;100748.16;4947127;29;20189;-74
2022/10/15 07:01:08;;;;;;;33.20;21.33;;;;;;;13.19;96.61;100744.72;4945182;29;20403;-74
2022/10/15 07:03:35;;;;;;;33.87;22.83;;;;;;;13.21;96.78;100749.88;4927922;29;21024;-75
2022/10/15 07:06:03;;;;;;;36.97;23.17;;;;;;;13.19;97.03;100746.41;4924539;28;20228;-75
2022/10/15 07:08:28;;;;;;;38.77;24.80;;;;;;;13.24;96.76;100744.75;4949199;28;20197;-74
2022/10/15 07:10:54;;;;;;;41.13;24.67;;;;;;;13.25;97.02;100752.47;4948213;29;20220;-75
2022/10/15 07:13:22;;;;;;;38.37;23.50;;;;;;;13.26;96.82;100754.19;4949619;29;20209;-74
2022/10/15 07:15:52;;;;;;;39.60;24.70;;;;;;;13.30;96.58;100760.22;4949005;29;20193;-75
2022/10/15 07:18:18;;;;;;;40.37;26.13;;;;;;;13.25;97.19;100770.47;4932580;28;20201;-74
2022/10/15 07:20:44;;;;;;;39.27;24.80;;;;;;;13.29;96.85;100771.34;4922595;28;20228;-74
2022/10/15 07:23:09;;;;;;;39.80;25.30;;;;;;;13.26;96.93;100761.91;4949032;28;20200;-74
2022/10/15 07:25:35;;;;;;;37.63;24.87;;;;;;;13.29;96.67;100766.19;4954854;28;20213;-74
2022/10/15 07:28:00;;;;;;;40.43;25.33;;;;;;;13.36;96.68;100770.56;4954841;28;20276;-74
2022/10/15 07:30:26;;;;;;;39.27;24.90;;;;;;;13.36;96.01;100768.84;4954591;28;20685;-74
2022/10/15 07:32:52;;;;;;;37.30;24.77;;;;;;;13.34;95.71;100772.22;4955405;28;20200;-73
2022/10/15 07:35:17;;;;;;;38.27;24.47;;;;;;;13.43;95.57;100773.16;4954946;28;20220;-73
2022/10/15 07:37:43;;;;;;;40.90;24.40;;;;;;;13.39;95.06;100768.84;4954658;28;20663;-74
2022/10/15 07:40:09;;;;;;;34.73;23.40;;;;;;;13.51;94.77;100770.66;4953421;28;20216;-74
2022/10/15 07:42:35;;;;;;;34.17;23.57;;;;;;;13.59;93.58;100764.72;4953661;28;20196;-73
2022/10/15 07:45:01;;;;;;;35.60;23.17;;;;;;;13.65;93.48;100767.31;4954631;28;20205;-76
2022/10/15 07:47:26;;;;;;;34.50;22.27;;;;;;;13.91;92.83;100764.88;4954693;28;20240;-74
2022/10/15 07:49:52;;;;;;;30.50;20.70;;;;;;;13.93;92.17;100764.03;4954173;28;20716;-75
2022/10/15 07:52:17;;;;;;;35.57;21.70;;;;;;;13.80;92.39;100763.94;4953607;28;20197;-74
2022/10/15 07:54:43;;;;;;;31.00;21.00;;;;;;;13.96;92.57;100764.06;4953209;29;20327;-75
2022/10/15 07:57:12;;;;;;;33.03;21.53;;;;;;;13.94;92.44;100768.31;4953811;28;20189;-75
2022/10/15 07:59:37;;;;;;;31.27;20.67;;;;;;;14.00;92.37;100765.75;4953067;29;20267;-75
2022/10/15 08:02:02;;;;;;;34.37;21.43;;;;;;;14.00;92.00;100765.75;4954539;28;20216;-75
2022/10/15 08:04:28;;;;;;;31.10;20.33;;;;;;;14.08;91.69;100776.13;4954398;28;20247;-76
2022/10/15 08:06:53;;;;;;;31.70;20.63;;;;;;;14.31;90.79;100785.66;4952727;28;20240;-75
2022/10/15 08:09:19;;;;;;;29.60;19.50;;;;;;;14.43;89.38;100777.97;4949728;29;20650;-75
2022/10/15 08:11:44;;;;;;;25.83;18.03;;;;;;;14.54;88.24;100772.88;4953075;29;20268;-75
2022/10/15 08:14:10;;;;;;;25.43;17.17;;;;;;;14.46;87.99;100775.38;4954190;28;20185;-75
2022/10/15 08:16:36;;;;;;;28.17;19.20;;;;;;;14.56;87.33;100771.13;4951567;29;20197;-75
2022/10/15 08:19:01;;;;;;;23.67;16.67;;;;;;;14.78;87.12;100776.31;4953860;28;20670;-74
2022/10/15 08:21:27;;;;;;;25.53;17.90;;;;;;;14.74;86.42;100771.16;4951977;28;20697;-74
2022/10/15 08:23:52;;;;;;;28.87;18.07;;;;;;;14.78;86.75;100776.31;4952545;29;20592;-75
2022/10/15 08:26:25;;;;;;;22.87;17.00;;;;;;;14.98;86.68;100776.34;4950874;29;20192;-73
2022/10/15 08:28:51;;;;;;;26.37;17.97;;;;;;;15.21;86.28;100772.03;4948761;28;20185;-74
2022/10/15 08:31:18;;;;;;;28.73;18.07;;;;;;;15.17;85.35;100768.63;4953874;28;20217;-74
2022/10/15 08:33:44;;;;;;;26.20;17.03;;;;;;;15.59;83.75;100776.31;4948126;29;20220;-75
2022/10/15 08:36:10;;;;;;;24.40;16.97;;;;;;;16.36;81.53;100771.75;4953079;28;20193;-75
2022/10/15 08:38:35;;;;;;;24.57;16.73;;;;;;;16.53;79.52;100767.34;4952158;29;20200;-75
2022/10/15 08:41:04;;;;;;;21.47;15.20;;;;;;;16.95;77.56;100768.81;4950358;29;20213;-75
2022/10/15 08:43:39;;;;;;;21.63;15.73;;;;;;;16.59;77.70;100764.75;4945582;28;20229;-76
2022/10/15 08:46:24;;;;;;;22.23;17.07;;;;;;;16.42;78.95;100771.75;4945557;29;20697;-75
2022/10/15 08:48:56;;;;;;;22.43;15.40;;;;;;;16.93;76.73;100768.81;4947521;28;20271;-75
2022/10/15 08:51:28;;;;;;;18.20;14.45;;;;;;;17.86;73.40;100762.75;4939074;28;20237;-74
2022/10/15 08:54:01;;;;;;;19.23;14.87;;;;;;;17.77;73.02;100765.44;4945829;29;20194;-74
2022/10/15 08:56:32;;;;;;;19.97;15.83;;;;;;;17.98;72.72;100764.34;4947767;29;20280;-74
2022/10/15 08:59:12;;;;;;;19.27;15.00;;;;;;;19.55;65.22;100763.72;4949137;29;20741;-74
2022/10/15 09:01:56;;;;;;;19.63;15.63;;;;;;;20.44;63.51;100757.59;4950032;28;20233;-74
2022/10/15 09:04:27;;;;;;;16.40;13.15;;;;;;;21.11;58.95;100758.63;4944816;29;20200;-74
2022/10/15 09:07:18;;;;;;;16.48;13.82;;;;;;;20.87;59.05;100748.75;4965751;28;20212;-74
2022/10/15 09:09:49;;;;;;;17.92;14.02;;;;;;;21.29;58.23;100752.94;4947072;29;20209;-75
2022/10/15 09:12:43;;;;;;;17.20;13.75;;;;;;;22.78;53.99;100742.59;4947973;29;20192;-75
2022/10/15 09:15:16;;;;;;;17.45;13.35;;;;;;;23.57;50.91;100737.25;4947653;28;20261;-75
2022/10/15 09:17:46;;;;;;;17.10;13.18;;;;;;;23.33;51.22;100739.84;4952353;28;20193;-75
2022/10/15 09:20:18;;;;;;;18.30;14.20;;;;;;;22.70;52.58;100748.03;4961829;28;20215;-75
2022/10/15 09:22:50;;;;;;;18.20;14.43;;;;;;;24.62;49.30;100741.16;4947312;28;20251;-75
2022/10/15 09:25:18;;;;;;;18.27;15.23;;;;;;;23.85;50.31;100740.59;4950566;29;20216;-75
2022/10/15 09:27:47;;;;;;;19.90;14.57;;;;;;;20.49;59.43;100759.19;4952232;28;20193;-75
2022/10/15 09:30:34;;;;;;;17.27;14.02;;;;;;;24.68;48.79;100732.22;4946232;28;20221;-75
2022/10/15 09:32:59;;;;;;;19.13;14.60;;;;;;;25.09;47.52;100732.22;4949277;29;20264;-75
2022/10/15 09:35:48;;;;;;;14.90;13.30;;;;;;;25.15;46.56;100737.22;4951306;28;20654;-75
2022/10/15 09:38:32;;;;;;;16.85;14.38;;;;;;;25.95;45.33;100736.38;4950460;29;20197;-75
2022/10/15 09:41:15;;;;;;;19.15;15.55;;;;;;;21.10;56.46;100756.91;4949135;28;20661;-75
2022/10/15 09:43:45;;;;;;;19.67;16.45;;;;;;;22.55;54.10;100745.91;4950703;29;20660;-75
2022/10/15 09:46:11;;;;;;;17.38;15.05;;;;;;;26.35;44.58;100723.97;4950807;28;20244;-76
2022/10/15 09:48:45;;;;;;;18.08;15.40;;;;;;;27.22;42.06;100724.09;4951590;28;20185;-76
2022/10/15 09:51:23;;;;;;;16.65;14.35;;;;;;;27.91;40.35;100725.72;4949542;29;20731;-76
2022/10/15 09:53:55;;;;;;;18.40;14.45;;;;;;;22.98;50.31;100740.19;4951493;28;20199;-75
2022/10/15 09:56:25;;;;;;;16.67;14.30;;;;;;;25.93;45.04;100722.47;4951585;28;20255;-75
2022/10/15 09:58:53;;;;;;;14.10;12.20;;;;;;;27.22;42.00;100722.28;4951085;28;20221;-76
2022/10/15 10:01:24;;;;;;;15.88;14.05;;;;;;;27.05;42.49;100722.28;4946966;28;20323;-76
2022/10/15 10:04:09;;;;;;;15.10;12.23;;;;;;;27.05;41.69;100730.16;4951285;28;20196;-75
2022/10/15 10:06:50;;;;;;;13.18;11.30;;;;;;;27.88;39.86;100723.25;4946343;29;20205;-76
2022/10/15 10:09:22;;;;;;;13.88;12.13;;;;;;;26.87;41.96;100728.44;4949396;29;20228;-75
2022/10/15 10:11:52;;;;;;;12.90;11.32;;;;;;;24.99;46.61;100735.28;4951586;28;20197;-76
2022/10/15 10:14:28;;;;;;;15.43;10.82;;;;;;;25.41;45.23;100730.91;4951382;28;20196;-75
2022/10/15 10:17:23;;;;;;;12.73;10.48;;;;;;;24.77;47.32;100730.06;4951078;28;20197;-75
2022/10/15 10:20:17;;;;;;;11.20;9.82;;;;;;;25.54;45.46;100732.94;4940037;28;20694;-76
2022/10/15 10:23:00;;;;;;;15.98;14.27;;;;;;;25.43;46.92;100724.69;4950887;28;20228;-75
2022/10/15 10:25:26;;;;;;;9.93;8.52;;;;;;;27.34;42.32;100715.56;4948671;29;20232;-75
2022/10/15 10:27:58;;;;;;;10.25;8.30;;;;;;;30.39;35.51;100703.03;4951159;28;20197;-76
2022/10/15 10:30:25;;;;;;;8.23;7.25;;;;;;;29.54;36.83;100710.97;4950720;28;20219;-76
2022/10/15 10:33:00;;;;;;;12.68;9.68;;;;;;;25.94;43.38;100719.78;4951563;28;20209;-76
2022/10/15 10:35:42;;;;;;;13.80;11.45;;;;;;;25.06;46.64;100718.41;4950590;28;20236;-76
2022/10/15 10:38:20;;;;;;;13.32;10.88;;;;;;;24.31;49.48;100716.22;4944996;29;20189;-75
2022/10/15 10:40:51;;;;;;;12.98;9.70;;;;;;;25.15;45.53;100718.00;4947015;29;20209;-75
2022/10/15 10:43:20;;;;;;;13.57;10.45;;;;;;;23.37;51.04;100724.03;4949860;29;20220;-75
2022/10/15 10:45:55;;;;;;;13.45;10.85;;;;;;;21.32;56.43;100738.97;4950863;28;20252;-75
2022/10/15 10:48:37;;;;;;;11.93;10.10;;;;;;;21.69;56.50;100743.19;4949189;28;20197;-75
2022/10/15 10:51:15;;;;;;;13.27;10.43;;;;;;;22.29;54.71;100736.22;4949194;29;20566;-75
2022/10/15 10:53:57;;;;;;;13.10;10.70;;;;;;;21.98;55.49;100724.13;4952872;29;20197;-75
2022/10/15 10:56:38;;;;;;;12.70;9.47;;;;;;;23.37;52.49;100715.31;4953007;28;20207;-75
2022/10/15 10:59:15;;;;;;;11.50;8.10;;;;;;;26.34;43.83;100711.75;4949063;29;20193;-75
2022/10/15 11:01:41;;;;;;;8.18;6.82;;;;;;;28.28;40.64;100701.72;4962080;28;20747;-76
2022/10/15 11:04:30;;;;;;;9.75;7.72;;;;;;;32.12;32.55;100692.81;4954493;28;20300;-76
2022/10/15 11:07:27;;;;;;;7.57;6.78;;;;;;;32.64;32.80;100684.59;4948131;29;20205;-74
2022/10/15 11:10:10;;;;;;;11.95;6.63;;;;;;;31.40;33.54;100684.69;4942443;29;20239;-75
2022/10/15 11:12:49;;;;;;;8.88;6.72;;;;;;;32.80;32.25;100677.19;4953832;28;20292;-75
2022/10/15 11:15:33;;;;;;;7.22;6.32;;;;;;;25.20;44.68;100710.81;4943069;29;21054;-75
2022/10/15 11:18:31;;;;;;;9.63;6.80;;;;;;;28.41;37.61;100684.31;4946224;29;20655;-76
2022/10/15 11:21:18;;;;;;;6.47;5.68;;;;;;;26.15;42.88;100708.28;4948408;29;20699;-75
2022/10/15 11:24:01;;;;;;;8.55;5.75;;;;;;;32.08;33.27;100675.44;4936417;29;20229;-76